sensor_id;sensor_type;location;lat;lon;timestamp;P1;durP1;ratioP1;P2;durP2;ratioP2
13319;SDS011;59599;47.608;12.190;2024-01-06T02:51:39;10.87;;;6.27;;
13319;SDS011;59599;47.608;12.190;2024-01-06T02:54:04;11.60;;;5.67;;
13319;SDS011;59599;47.608;12.190;2024-01-06T02:56:30;12.07;;;5.90;;
13319;SDS011;59599;47.608;12.190;2024-01-06T02:58:56;8.60;;;5.70;;
13319;SDS011;59599;47.608;12.190;2024-01-06T03:01:22;11.30;;;6.03;;
13319;SDS011;59599;47.608;12.190;2024-01-06T03:03:48;8.20;;;5.50;;
13319;SDS011;59599;47.608;12.190;2024-01-06T03:06:14;8.20;;;5.67;;
13319;SDS011;59599;47.608;12.190;2024-01-06T03:08:39;9.77;;;6.00;;
13319;SDS011;59599;47.608;12.190;2024-01-06T03:11:05;9.57;;;5.73;;
13319;SDS011;59599;47.608;12.190;2024-01-06T03:13:31;10.67;;;5.47;;
13319;SDS011;59599;47.608;12.190;2024-01-06T03:15:57;12.57;;;5.83;;
13319;SDS011;59599;47.608;12.190;2024-01-06T03:18:23;8.47;;;5.57;;
13319;SDS011;59599;47.608;12.190;2024-01-06T03:20:49;8.20;;;5.40;;
13319;SDS011;59599;47.608;12.190;2024-01-06T03:23:14;8.93;;;5.53;;
13319;SDS011;59599;47.608;12.190;2024-01-06T03:25:40;10.43;;;6.00;;
13319;SDS011;59599;47.608;12.190;2024-01-06T03:28:06;10.73;;;6.20;;
13319;SDS011;59599;47.608;12.190;2024-01-06T03:30:31;8.97;;;5.80;;
13319;SDS011;59599;47.608;12.190;2024-01-06T03:32:57;11.03;;;6.30;;
13319;SDS011;59599;47.608;12.190;2024-01-06T03:35:23;10.17;;;5.60;;
13319;SDS011;59599;47.608;12.190;2024-01-06T03:37:49;10.23;;;6.37;;
13319;SDS011;59599;47.608;12.190;2024-01-06T03:40:14;9.60;;;5.93;;
13319;SDS011;59599;47.608;12.190;2024-01-06T03:42:40;12.37;;;6.63;;
13319;SDS011;59599;47.608;12.190;2024-01-06T03:45:06;16.27;;;5.80;;
13319;SDS011;59599;47.608;12.190;2024-01-06T03:47:31;13.73;;;6.63;;
13319;SDS011;59599;47.608;12.190;2024-01-06T03:49:57;11.53;;;6.20;;
13319;SDS011;59599;47.608;12.190;2024-01-06T03:52:23;8.93;;;5.83;;
13319;SDS011;59599;47.608;12.190;2024-01-06T03:54:49;10.33;;;6.70;;
13319;SDS011;59599;47.608;12.190;2024-01-06T03:57:15;11.50;;;6.93;;
13319;SDS011;59599;47.608;12.190;2024-01-06T03:59:41;17.80;;;7.80;;
13319;SDS011;59599;47.608;12.190;2024-01-06T04:02:07;12.00;;;6.40;;
13319;SDS011;59599;47.608;12.190;2024-01-06T04:04:33;14.50;;;7.00;;
13319;SDS011;59599;47.608;12.190;2024-01-06T04:06:59;17.93;;;8.87;;
13319;SDS011;59599;47.608;12.190;2024-01-06T04:09:26;14.00;;;7.40;;
13319;SDS011;59599;47.608;12.190;2024-01-06T04:11:52;16.30;;;7.77;;
13319;SDS011;59599;47.608;12.190;2024-01-06T04:14:18;21.17;;;8.63;;
13319;SDS011;59599;47.608;12.190;2024-01-06T04:16:44;18.07;;;9.50;;
13319;SDS011;59599;47.608;12.190;2024-01-06T04:19:09;16.57;;;8.50;;
13319;SDS011;59599;47.608;12.190;2024-01-06T04:21:36;15.37;;;8.00;;
13319;SDS011;59599;47.608;12.190;2024-01-06T04:24:02;14.03;;;7.47;;
13319;SDS011;59599;47.608;12.190;2024-01-06T04:26:28;13.63;;;7.87;;
13319;SDS011;59599;47.608;12.190;2024-01-06T04:28:54;13.23;;;7.40;;
13319;SDS011;59599;47.608;12.190;2024-01-06T04:31:20;14.50;;;6.80;;
13319;SDS011;59599;47.608;12.190;2024-01-06T04:33:45;12.90;;;6.40;;
13319;SDS011;59599;47.608;12.190;2024-01-06T04:36:11;11.87;;;6.40;;
13319;SDS011;59599;47.608;12.190;2024-01-06T04:38:37;12.23;;;6.83;;
13319;SDS011;59599;47.608;12.190;2024-01-06T04:41:03;10.93;;;6.50;;
13319;SDS011;59599;47.608;12.190;2024-01-06T04:43:28;12.30;;;6.53;;
13319;SDS011;59599;47.608;12.190;2024-01-06T04:45:54;12.90;;;7.00;;
13319;SDS011;59599;47.608;12.190;2024-01-06T04:48:22;10.23;;;6.40;;
13319;SDS011;59599;47.608;12.190;2024-01-06T04:50:48;11.27;;;6.57;;
13319;SDS011;59599;47.608;12.190;2024-01-06T04:53:14;10.43;;;6.23;;
13319;SDS011;59599;47.608;12.190;2024-01-06T04:55:40;12.50;;;6.23;;
13319;SDS011;59599;47.608;12.190;2024-01-06T04:58:06;10.73;;;6.13;;
13319;SDS011;59599;47.608;12.190;2024-01-06T05:00:31;10.77;;;6.30;;
13319;SDS011;59599;47.608;12.190;2024-01-06T05:02:57;10.97;;;5.87;;
13319;SDS011;59599;47.608;12.190;2024-01-06T05:05:23;6.80;;;5.10;;
13319;SDS011;59599;47.608;12.190;2024-01-06T05:07:49;8.37;;;5.00;;
13319;SDS011;59599;47.608;12.190;2024-01-06T05:10:15;6.27;;;4.37;;
13319;SDS011;59599;47.608;12.190;2024-01-06T05:12:41;6.93;;;5.10;;
13319;SDS011;59599;47.608;12.190;2024-01-06T05:15:07;6.33;;;4.90;;
13319;SDS011;59599;47.608;12.190;2024-01-06T05:17:33;5.10;;;4.27;;
13319;SDS011;59599;47.608;12.190;2024-01-06T05:19:59;6.73;;;4.83;;
13319;SDS011;59599;47.608;12.190;2024-01-06T05:22:25;5.87;;;4.70;;
13319;SDS011;59599;47.608;12.190;2024-01-06T05:24:51;5.40;;;4.50;;
13319;SDS011;59599;47.608;12.190;2024-01-06T05:27:18;5.70;;;4.27;;
13319;SDS011;59599;47.608;12.190;2024-01-06T05:29:44;4.73;;;4.23;;
13319;SDS011;59599;47.608;12.190;2024-01-06T05:32:10;4.13;;;3.70;;
13319;SDS011;59599;47.608;12.190;2024-01-06T05:34:36;3.87;;;3.53;;
13319;SDS011;59599;47.608;12.190;2024-01-06T05:37:01;3.93;;;3.53;;
13319;SDS011;59599;47.608;12.190;2024-01-06T05:39:27;6.70;;;4.03;;
13319;SDS011;59599;47.608;12.190;2024-01-06T05:41:53;4.90;;;4.20;;
13319;SDS011;59599;47.608;12.190;2024-01-06T05:44:19;4.83;;;4.10;;
13319;SDS011;59599;47.608;12.190;2024-01-06T05:46:44;4.23;;;3.70;;
13319;SDS011;59599;47.608;12.190;2024-01-06T05:49:10;6.17;;;4.07;;
13319;SDS011;59599;47.608;12.190;2024-01-06T05:51:35;4.17;;;3.77;;
13319;SDS011;59599;47.608;12.190;2024-01-06T05:54:01;4.27;;;3.70;;
13319;SDS011;59599;47.608;12.190;2024-01-06T05:56:27;5.27;;;3.87;;
13319;SDS011;59599;47.608;12.190;2024-01-06T05:58:54;3.90;;;3.47;;
13319;SDS011;59599;47.608;12.190;2024-01-06T06:01:20;4.93;;;3.83;;
13319;SDS011;59599;47.608;12.190;2024-01-06T06:03:46;4.37;;;3.80;;
13319;SDS011;59599;47.608;12.190;2024-01-06T06:06:12;4.37;;;3.97;;
13319;SDS011;59599;47.608;12.190;2024-01-06T06:08:40;4.67;;;4.17;;
13319;SDS011;59599;47.608;12.190;2024-01-06T06:11:07;5.17;;;3.80;;
13319;SDS011;59599;47.608;12.190;2024-01-06T06:13:39;5.50;;;4.20;;
13319;SDS011;59599;47.608;12.190;2024-01-06T06:16:06;4.70;;;4.20;;
13319;SDS011;59599;47.608;12.190;2024-01-06T06:18:32;4.17;;;3.77;;
13319;SDS011;59599;47.608;12.190;2024-01-06T06:20:58;5.57;;;4.57;;
13319;SDS011;59599;47.608;12.190;2024-01-06T06:23:24;5.57;;;4.40;;
13319;SDS011;59599;47.608;12.190;2024-01-06T06:25:50;5.13;;;4.23;;
13319;SDS011;59599;47.608;12.190;2024-01-06T06:28:16;5.93;;;5.20;;
13319;SDS011;59599;47.608;12.190;2024-01-06T06:30:42;5.33;;;4.50;;
13319;SDS011;59599;47.608;12.190;2024-01-06T06:33:08;5.67;;;4.80;;
13319;SDS011;59599;47.608;12.190;2024-01-06T06:35:34;5.03;;;4.30;;
13319;SDS011;59599;47.608;12.190;2024-01-06T06:37:59;5.37;;;4.87;;
13319;SDS011;59599;47.608;12.190;2024-01-06T06:40:25;5.83;;;5.17;;
13319;SDS011;59599;47.608;12.190;2024-01-06T06:42:50;5.37;;;4.70;;
13319;SDS011;59599;47.608;12.190;2024-01-06T06:45:16;5.30;;;4.73;;
13319;SDS011;59599;47.608;12.190;2024-01-06T06:47:44;6.70;;;4.20;;
13319;SDS011;59599;47.608;12.190;2024-01-06T06:50:09;5.00;;;3.87;;
13319;SDS011;59599;47.608;12.190;2024-01-06T06:52:35;4.10;;;3.70;;
13319;SDS011;59599;47.608;12.190;2024-01-06T06:55:01;4.40;;;4.00;;
13319;SDS011;59599;47.608;12.190;2024-01-06T06:57:27;4.23;;;3.83;;
13319;SDS011;59599;47.608;12.190;2024-01-06T06:59:53;4.13;;;3.73;;
13319;SDS011;59599;47.608;12.190;2024-01-06T07:02:18;4.20;;;3.80;;
13319;SDS011;59599;47.608;12.190;2024-01-06T07:04:44;4.17;;;3.30;;
13319;SDS011;59599;47.608;12.190;2024-01-06T07:07:10;4.50;;;4.10;;
13319;SDS011;59599;47.608;12.190;2024-01-06T07:09:35;5.30;;;3.70;;
13319;SDS011;59599;47.608;12.190;2024-01-06T07:12:01;6.00;;;4.17;;
13319;SDS011;59599;47.608;12.190;2024-01-06T07:14:27;4.67;;;4.13;;
13319;SDS011;59599;47.608;12.190;2024-01-06T07:16:53;4.13;;;3.73;;
13319;SDS011;59599;47.608;12.190;2024-01-06T07:19:19;4.17;;;3.77;;
13319;SDS011;59599;47.608;12.190;2024-01-06T07:21:45;8.13;;;4.10;;
13319;SDS011;59599;47.608;12.190;2024-01-06T07:24:11;6.00;;;4.60;;
13319;SDS011;59599;47.608;12.190;2024-01-06T07:26:36;4.53;;;4.13;;
13319;SDS011;59599;47.608;12.190;2024-01-06T07:29:02;4.23;;;3.60;;
13319;SDS011;59599;47.608;12.190;2024-01-06T07:31:28;4.17;;;3.77;;
13319;SDS011;59599;47.608;12.190;2024-01-06T07:33:54;4.83;;;4.33;;
13319;SDS011;59599;47.608;12.190;2024-01-06T07:36:19;6.63;;;4.67;;
13319;SDS011;59599;47.608;12.190;2024-01-06T07:38:46;6.33;;;5.13;;
13319;SDS011;59599;47.608;12.190;2024-01-06T07:41:12;4.80;;;4.13;;
13319;SDS011;59599;47.608;12.190;2024-01-06T07:43:38;4.70;;;3.43;;
13319;SDS011;59599;47.608;12.190;2024-01-06T07:46:03;4.57;;;3.10;;
13319;SDS011;59599;47.608;12.190;2024-01-06T07:48:29;6.07;;;3.50;;
13319;SDS011;59599;47.608;12.190;2024-01-06T07:50:55;4.90;;;2.90;;
13319;SDS011;59599;47.608;12.190;2024-01-06T07:53:20;4.77;;;3.20;;
13319;SDS011;59599;47.608;12.190;2024-01-06T07:55:46;3.43;;;3.13;;
13319;SDS011;59599;47.608;12.190;2024-01-06T07:58:12;3.83;;;3.43;;
13319;SDS011;59599;47.608;12.190;2024-01-06T08:00:38;3.57;;;2.97;;
13319;SDS011;59599;47.608;12.190;2024-01-06T08:03:04;2.73;;;2.40;;
13319;SDS011;59599;47.608;12.190;2024-01-06T08:05:31;2.90;;;2.60;;
13319;SDS011;59599;47.608;12.190;2024-01-06T08:07:56;2.67;;;2.30;;
13319;SDS011;59599;47.608;12.190;2024-01-06T08:10:22;3.17;;;2.70;;
13319;SDS011;59599;47.608;12.190;2024-01-06T08:12:48;3.50;;;3.20;;
13319;SDS011;59599;47.608;12.190;2024-01-06T08:15:14;3.30;;;3.00;;
13319;SDS011;59599;47.608;12.190;2024-01-06T08:17:40;3.47;;;2.83;;
13319;SDS011;59599;47.608;12.190;2024-01-06T08:20:06;2.83;;;2.60;;
13319;SDS011;59599;47.608;12.190;2024-01-06T08:22:33;3.23;;;2.70;;
13319;SDS011;59599;47.608;12.190;2024-01-06T08:24:59;3.10;;;2.80;;
13319;SDS011;59599;47.608;12.190;2024-01-06T08:27:25;3.40;;;3.10;;
13319;SDS011;59599;47.608;12.190;2024-01-06T08:29:51;3.43;;;3.07;;
13319;SDS011;59599;47.608;12.190;2024-01-06T08:32:16;3.33;;;3.03;;
13319;SDS011;59599;47.608;12.190;2024-01-06T08:34:42;4.17;;;3.53;;
13319;SDS011;59599;47.608;12.190;2024-01-06T08:37:08;4.20;;;3.80;;
13319;SDS011;59599;47.608;12.190;2024-01-06T08:39:34;5.30;;;4.00;;
13319;SDS011;59599;47.608;12.190;2024-01-06T08:42:00;4.10;;;3.70;;
13319;SDS011;59599;47.608;12.190;2024-01-06T08:44:26;4.57;;;3.60;;
13319;SDS011;59599;47.608;12.190;2024-01-06T08:46:52;8.03;;;4.00;;
13319;SDS011;59599;47.608;12.190;2024-01-06T08:49:17;5.47;;;3.57;;
13319;SDS011;59599;47.608;12.190;2024-01-06T08:51:43;5.97;;;4.47;;
13319;SDS011;59599;47.608;12.190;2024-01-06T08:54:09;6.63;;;5.47;;
13319;SDS011;59599;47.608;12.190;2024-01-06T08:56:35;5.07;;;4.57;;
13319;SDS011;59599;47.608;12.190;2024-01-06T08:59:01;6.17;;;4.70;;
13319;SDS011;59599;47.608;12.190;2024-01-06T09:01:27;7.57;;;5.10;;
13319;SDS011;59599;47.608;12.190;2024-01-06T09:03:52;5.40;;;4.57;;
13319;SDS011;59599;47.608;12.190;2024-01-06T09:06:18;5.27;;;4.40;;
13319;SDS011;59599;47.608;12.190;2024-01-06T09:08:43;6.33;;;4.17;;
13319;SDS011;59599;47.608;12.190;2024-01-06T09:11:09;5.10;;;3.93;;
13319;SDS011;59599;47.608;12.190;2024-01-06T09:13:35;4.33;;;3.70;;
13319;SDS011;59599;47.608;12.190;2024-01-06T09:16:01;4.10;;;3.40;;
13319;SDS011;59599;47.608;12.190;2024-01-06T09:18:27;4.37;;;3.00;;
13319;SDS011;59599;47.608;12.190;2024-01-06T09:20:53;2.93;;;2.70;;
13319;SDS011;59599;47.608;12.190;2024-01-06T09:23:19;3.43;;;3.13;;
13319;SDS011;59599;47.608;12.190;2024-01-06T09:25:45;4.23;;;3.83;;
13319;SDS011;59599;47.608;12.190;2024-01-06T09:28:14;3.80;;;3.50;;
13319;SDS011;59599;47.608;12.190;2024-01-06T09:30:40;4.30;;;3.90;;
13319;SDS011;59599;47.608;12.190;2024-01-06T09:33:06;5.33;;;4.27;;
13319;SDS011;59599;47.608;12.190;2024-01-06T09:35:33;6.33;;;5.07;;
13319;SDS011;59599;47.608;12.190;2024-01-06T09:37:59;6.43;;;5.67;;
13319;SDS011;59599;47.608;12.190;2024-01-06T09:40:24;6.57;;;5.33;;
13319;SDS011;59599;47.608;12.190;2024-01-06T09:42:51;6.87;;;5.47;;
13319;SDS011;59599;47.608;12.190;2024-01-06T09:45:18;7.20;;;5.57;;
13319;SDS011;59599;47.608;12.190;2024-01-06T09:47:46;6.17;;;5.17;;
13319;SDS011;59599;47.608;12.190;2024-01-06T09:50:14;6.07;;;5.13;;
13319;SDS011;59599;47.608;12.190;2024-01-06T09:52:45;8.23;;;5.10;;
13319;SDS011;59599;47.608;12.190;2024-01-06T09:55:18;8.53;;;5.70;;
13319;SDS011;59599;47.608;12.190;2024-01-06T09:57:48;7.17;;;5.43;;
13319;SDS011;59599;47.608;12.190;2024-01-06T10:00:14;9.10;;;6.10;;
13319;SDS011;59599;47.608;12.190;2024-01-06T10:02:40;10.97;;;6.20;;
13319;SDS011;59599;47.608;12.190;2024-01-06T10:05:06;9.40;;;6.50;;
13319;SDS011;59599;47.608;12.190;2024-01-06T10:07:32;6.90;;;5.07;;
13319;SDS011;59599;47.608;12.190;2024-01-06T10:09:58;5.70;;;5.10;;
13319;SDS011;59599;47.608;12.190;2024-01-06T10:12:25;6.33;;;5.43;;
13319;SDS011;59599;47.608;12.190;2024-01-06T10:14:51;6.50;;;5.90;;
13319;SDS011;59599;47.608;12.190;2024-01-06T10:17:17;6.60;;;5.30;;
13319;SDS011;59599;47.608;12.190;2024-01-06T10:19:46;9.00;;;5.80;;
13319;SDS011;59599;47.608;12.190;2024-01-06T10:22:12;8.13;;;5.13;;
13319;SDS011;59599;47.608;12.190;2024-01-06T10:24:38;6.20;;;5.60;;
13319;SDS011;59599;47.608;12.190;2024-01-06T10:27:04;8.20;;;5.87;;
13319;SDS011;59599;47.608;12.190;2024-01-06T10:29:29;6.50;;;5.73;;
13319;SDS011;59599;47.608;12.190;2024-01-06T10:31:57;8.90;;;6.50;;
13319;SDS011;59599;47.608;12.190;2024-01-06T10:34:23;6.10;;;5.50;;
13319;SDS011;59599;47.608;12.190;2024-01-06T10:36:49;5.63;;;4.77;;
13319;SDS011;59599;47.608;12.190;2024-01-06T10:39:17;6.50;;;5.30;;
13319;SDS011;59599;47.608;12.190;2024-01-06T10:41:43;6.33;;;4.43;;
13319;SDS011;59599;47.608;12.190;2024-01-06T10:44:10;5.33;;;4.83;;
13319;SDS011;59599;47.608;12.190;2024-01-06T10:46:36;6.30;;;5.43;;
13319;SDS011;59599;47.608;12.190;2024-01-06T10:49:05;8.00;;;4.77;;
13319;SDS011;59599;47.608;12.190;2024-01-06T10:51:36;8.07;;;5.60;;
13319;SDS011;59599;47.608;12.190;2024-01-06T10:54:05;5.67;;;4.93;;
13319;SDS011;59599;47.608;12.190;2024-01-06T10:56:31;6.10;;;5.43;;
13319;SDS011;59599;47.608;12.190;2024-01-06T10:59:03;7.77;;;6.20;;
13319;SDS011;59599;47.608;12.190;2024-01-06T11:01:29;8.67;;;7.07;;
13319;SDS011;59599;47.608;12.190;2024-01-06T11:03:54;9.30;;;6.80;;
13319;SDS011;59599;47.608;12.190;2024-01-06T11:06:20;7.03;;;6.30;;
13319;SDS011;59599;47.608;12.190;2024-01-06T11:11:18;4.27;;;3.20;;
13319;SDS011;59599;47.608;12.190;2024-01-06T11:13:45;2.93;;;2.50;;
13319;SDS011;59599;47.608;12.190;2024-01-06T11:16:21;3.17;;;2.30;;
13319;SDS011;59599;47.608;12.190;2024-01-06T11:19:01;3.57;;;2.77;;
13319;SDS011;59599;47.608;12.190;2024-01-06T11:21:27;2.63;;;2.13;;
13319;SDS011;59599;47.608;12.190;2024-01-06T11:26:45;2.70;;;2.33;;
13319;SDS011;59599;47.608;12.190;2024-01-06T11:29:15;3.57;;;2.87;;
13319;SDS011;59599;47.608;12.190;2024-01-06T11:31:41;2.57;;;2.37;;
13319;SDS011;59599;47.608;12.190;2024-01-06T11:34:16;3.27;;;2.70;;
13319;SDS011;59599;47.608;12.190;2024-01-06T11:36:44;2.80;;;2.40;;
13319;SDS011;59599;47.608;12.190;2024-01-06T11:39:33;3.43;;;2.87;;
13319;SDS011;59599;47.608;12.190;2024-01-06T11:41:59;2.33;;;1.93;;
13319;SDS011;59599;47.608;12.190;2024-01-06T11:44:26;2.93;;;1.83;;
13319;SDS011;59599;47.608;12.190;2024-01-06T11:46:54;1.87;;;1.60;;
13319;SDS011;59599;47.608;12.190;2024-01-06T11:49:21;2.07;;;1.67;;
13319;SDS011;59599;47.608;12.190;2024-01-06T11:51:48;2.93;;;2.00;;
13319;SDS011;59599;47.608;12.190;2024-01-06T11:54:13;2.20;;;1.90;;
13319;SDS011;59599;47.608;12.190;2024-01-06T11:56:39;2.87;;;2.37;;
13319;SDS011;59599;47.608;12.190;2024-01-06T11:59:05;3.03;;;1.80;;
13319;SDS011;59599;47.608;12.190;2024-01-06T12:01:37;1.73;;;1.60;;
13319;SDS011;59599;47.608;12.190;2024-01-06T12:04:04;1.70;;;1.60;;
13319;SDS011;59599;47.608;12.190;2024-01-06T12:06:30;4.20;;;2.17;;
13319;SDS011;59599;47.608;12.190;2024-01-06T12:09:03;2.40;;;1.80;;
13319;SDS011;59599;47.608;12.190;2024-01-06T12:11:32;3.00;;;2.00;;
13319;SDS011;59599;47.608;12.190;2024-01-06T12:13:58;2.57;;;2.20;;
13319;SDS011;59599;47.608;12.190;2024-01-06T12:16:23;1.93;;;1.57;;
13319;SDS011;59599;47.608;12.190;2024-01-06T12:18:53;2.03;;;1.47;;
13319;SDS011;59599;47.608;12.190;2024-01-06T12:21:21;1.50;;;1.40;;
13319;SDS011;59599;47.608;12.190;2024-01-06T12:23:47;1.53;;;1.40;;
13319;SDS011;59599;47.608;12.190;2024-01-06T12:26:13;4.03;;;1.50;;
13319;SDS011;59599;47.608;12.190;2024-01-06T12:28:39;2.63;;;1.60;;
13319;SDS011;59599;47.608;12.190;2024-01-06T12:31:08;2.23;;;1.40;;
13319;SDS011;59599;47.608;12.190;2024-01-06T12:33:34;2.03;;;1.30;;
13319;SDS011;59599;47.608;12.190;2024-01-06T12:36:02;2.70;;;1.50;;
13319;SDS011;59599;47.608;12.190;2024-01-06T12:38:29;2.00;;;1.60;;
13319;SDS011;59599;47.608;12.190;2024-01-06T12:40:55;2.67;;;1.70;;
13319;SDS011;59599;47.608;12.190;2024-01-06T12:43:21;2.23;;;1.50;;
13319;SDS011;59599;47.608;12.190;2024-01-06T12:45:46;1.70;;;1.60;;
13319;SDS011;59599;47.608;12.190;2024-01-06T12:48:12;2.33;;;1.60;;
13319;SDS011;59599;47.608;12.190;2024-01-06T12:50:38;2.80;;;1.77;;
13319;SDS011;59599;47.608;12.190;2024-01-06T12:53:03;2.50;;;1.97;;
13319;SDS011;59599;47.608;12.190;2024-01-06T12:55:29;2.07;;;1.80;;
13319;SDS011;59599;47.608;12.190;2024-01-06T12:57:55;2.80;;;2.00;;
13319;SDS011;59599;47.608;12.190;2024-01-06T13:00:20;3.53;;;1.70;;
13319;SDS011;59599;47.608;12.190;2024-01-06T13:02:46;2.60;;;1.90;;
13319;SDS011;59599;47.608;12.190;2024-01-06T13:05:11;2.10;;;1.90;;
13319;SDS011;59599;47.608;12.190;2024-01-06T13:07:38;3.60;;;2.10;;
13319;SDS011;59599;47.608;12.190;2024-01-06T13:10:04;4.80;;;2.10;;
13319;SDS011;59599;47.608;12.190;2024-01-06T13:12:30;1.97;;;1.70;;
13319;SDS011;59599;47.608;12.190;2024-01-06T13:14:56;2.37;;;1.90;;
13319;SDS011;59599;47.608;12.190;2024-01-06T13:17:22;3.27;;;1.87;;
13319;SDS011;59599;47.608;12.190;2024-01-06T13:19:48;1.70;;;1.60;;
13319;SDS011;59599;47.608;12.190;2024-01-06T13:22:14;2.23;;;1.73;;
13319;SDS011;59599;47.608;12.190;2024-01-06T13:24:41;2.10;;;1.60;;
13319;SDS011;59599;47.608;12.190;2024-01-06T13:27:06;1.97;;;1.47;;
13319;SDS011;59599;47.608;12.190;2024-01-06T13:29:33;2.03;;;1.33;;
13319;SDS011;59599;47.608;12.190;2024-01-06T13:31:59;3.13;;;2.27;;
13319;SDS011;59599;47.608;12.190;2024-01-06T13:34:25;1.97;;;1.50;;
13319;SDS011;59599;47.608;12.190;2024-01-06T13:36:51;3.00;;;2.00;;
13319;SDS011;59599;47.608;12.190;2024-01-06T13:39:16;4.23;;;2.27;;
13319;SDS011;59599;47.608;12.190;2024-01-06T13:41:48;5.17;;;2.00;;
13319;SDS011;59599;47.608;12.190;2024-01-06T13:44:14;3.13;;;2.20;;
13319;SDS011;59599;47.608;12.190;2024-01-06T13:46:40;2.97;;;2.03;;
13319;SDS011;59599;47.608;12.190;2024-01-06T13:49:09;2.70;;;1.53;;
13319;SDS011;59599;47.608;12.190;2024-01-06T13:51:35;2.10;;;1.70;;
13319;SDS011;59599;47.608;12.190;2024-01-06T13:54:01;1.67;;;1.50;;
13319;SDS011;59599;47.608;12.190;2024-01-06T13:56:27;2.43;;;1.50;;
13319;SDS011;59599;47.608;12.190;2024-01-06T13:58:53;1.67;;;1.50;;
13319;SDS011;59599;47.608;12.190;2024-01-06T14:01:19;3.10;;;1.70;;
13319;SDS011;59599;47.608;12.190;2024-01-06T14:03:45;1.63;;;1.50;;
13319;SDS011;59599;47.608;12.190;2024-01-06T14:06:11;1.83;;;1.63;;
13319;SDS011;59599;47.608;12.190;2024-01-06T14:08:37;2.27;;;1.80;;
13319;SDS011;59599;47.608;12.190;2024-01-06T14:11:04;3.53;;;2.43;;
13319;SDS011;59599;47.608;12.190;2024-01-06T14:13:30;5.73;;;3.17;;
13319;SDS011;59599;47.608;12.190;2024-01-06T14:15:56;5.23;;;3.37;;
13319;SDS011;59599;47.608;12.190;2024-01-06T14:18:22;4.57;;;2.90;;
13319;SDS011;59599;47.608;12.190;2024-01-06T14:20:48;10.63;;;5.63;;
13319;SDS011;59599;47.608;12.190;2024-01-06T14:23:13;6.90;;;4.33;;
13319;SDS011;59599;47.608;12.190;2024-01-06T14:25:40;5.13;;;3.23;;
13319;SDS011;59599;47.608;12.190;2024-01-06T14:28:05;7.83;;;4.27;;
13319;SDS011;59599;47.608;12.190;2024-01-06T14:30:31;7.93;;;4.43;;
13319;SDS011;59599;47.608;12.190;2024-01-06T14:32:57;2.53;;;2.23;;
13319;SDS011;59599;47.608;12.190;2024-01-06T14:35:23;3.20;;;1.70;;
13319;SDS011;59599;47.608;12.190;2024-01-06T14:37:49;2.20;;;1.70;;
13319;SDS011;59599;47.608;12.190;2024-01-06T14:40:16;2.33;;;1.40;;
13319;SDS011;59599;47.608;12.190;2024-01-06T14:42:42;1.80;;;1.10;;
13319;SDS011;59599;47.608;12.190;2024-01-06T14:45:08;1.87;;;1.50;;
13319;SDS011;59599;47.608;12.190;2024-01-06T14:47:34;2.87;;;2.07;;
13319;SDS011;59599;47.608;12.190;2024-01-06T14:50:00;2.47;;;1.80;;
13319;SDS011;59599;47.608;12.190;2024-01-06T14:52:25;1.93;;;1.60;;
13319;SDS011;59599;47.608;12.190;2024-01-06T14:54:52;3.33;;;2.77;;
13319;SDS011;59599;47.608;12.190;2024-01-06T14:57:18;3.97;;;2.90;;
13319;SDS011;59599;47.608;12.190;2024-01-06T14:59:44;2.83;;;2.57;;
13319;SDS011;59599;47.608;12.190;2024-01-06T15:02:10;5.23;;;3.20;;
13319;SDS011;59599;47.608;12.190;2024-01-06T15:04:38;2.50;;;2.30;;
13319;SDS011;59599;47.608;12.190;2024-01-06T15:07:04;2.20;;;1.57;;
13319;SDS011;59599;47.608;12.190;2024-01-06T15:09:30;1.60;;;1.47;;
13319;SDS011;59599;47.608;12.190;2024-01-06T15:11:56;4.23;;;1.90;;
13319;SDS011;59599;47.608;12.190;2024-01-06T15:14:21;3.23;;;1.80;;
13319;SDS011;59599;47.608;12.190;2024-01-06T15:16:47;2.20;;;2.00;;
13319;SDS011;59599;47.608;12.190;2024-01-06T15:19:13;3.10;;;2.43;;
13319;SDS011;59599;47.608;12.190;2024-01-06T15:21:38;3.90;;;2.23;;
13319;SDS011;59599;47.608;12.190;2024-01-06T15:24:04;4.43;;;2.53;;
13319;SDS011;59599;47.608;12.190;2024-01-06T15:26:31;4.63;;;3.50;;
13319;SDS011;59599;47.608;12.190;2024-01-06T15:28:57;3.33;;;2.90;;
13319;SDS011;59599;47.608;12.190;2024-01-06T15:31:25;2.80;;;2.17;;
13319;SDS011;59599;47.608;12.190;2024-01-06T15:33:51;3.00;;;2.30;;
13319;SDS011;59599;47.608;12.190;2024-01-06T15:36:17;2.70;;;2.30;;
13319;SDS011;59599;47.608;12.190;2024-01-06T15:38:43;4.33;;;2.70;;
13319;SDS011;59599;47.608;12.190;2024-01-06T15:41:09;4.63;;;2.50;;
13319;SDS011;59599;47.608;12.190;2024-01-06T15:43:34;2.50;;;2.30;;
13319;SDS011;59599;47.608;12.190;2024-01-06T15:46:02;3.53;;;2.70;;
13319;SDS011;59599;47.608;12.190;2024-01-06T15:48:28;4.80;;;2.63;;
13319;SDS011;59599;47.608;12.190;2024-01-06T15:50:53;3.73;;;3.13;;
13319;SDS011;59599;47.608;12.190;2024-01-06T15:53:19;9.67;;;3.20;;
13319;SDS011;59599;47.608;12.190;2024-01-06T15:55:45;3.67;;;3.10;;
13319;SDS011;59599;47.608;12.190;2024-01-06T15:58:11;3.57;;;2.70;;
13319;SDS011;59599;47.608;12.190;2024-01-06T16:00:38;3.43;;;2.53;;
13319;SDS011;59599;47.608;12.190;2024-01-06T16:03:03;2.60;;;2.40;;
13319;SDS011;59599;47.608;12.190;2024-01-06T16:05:31;3.50;;;2.50;;
13319;SDS011;59599;47.608;12.190;2024-01-06T16:07:57;3.50;;;2.93;;
13319;SDS011;59599;47.608;12.190;2024-01-06T16:10:22;2.83;;;2.63;;
13319;SDS011;59599;47.608;12.190;2024-01-06T16:12:48;5.10;;;4.13;;
13319;SDS011;59599;47.608;12.190;2024-01-06T16:15:13;9.67;;;7.30;;
13319;SDS011;59599;47.608;12.190;2024-01-06T16:17:39;7.33;;;5.67;;
13319;SDS011;59599;47.608;12.190;2024-01-06T16:20:06;5.47;;;4.70;;
13319;SDS011;59599;47.608;12.190;2024-01-06T16:22:32;6.40;;;4.73;;
13319;SDS011;59599;47.608;12.190;2024-01-06T16:24:58;5.57;;;3.97;;
13319;SDS011;59599;47.608;12.190;2024-01-06T16:27:24;2.97;;;2.67;;
13319;SDS011;59599;47.608;12.190;2024-01-06T16:29:50;3.00;;;2.70;;
13319;SDS011;59599;47.608;12.190;2024-01-06T16:32:16;3.80;;;3.13;;
13319;SDS011;59599;47.608;12.190;2024-01-06T16:34:43;4.23;;;3.60;;
13319;SDS011;59599;47.608;12.190;2024-01-06T16:37:09;3.47;;;3.17;;
13319;SDS011;59599;47.608;12.190;2024-01-06T16:39:36;4.27;;;3.87;;
13319;SDS011;59599;47.608;12.190;2024-01-06T16:42:02;3.90;;;3.47;;
13319;SDS011;59599;47.608;12.190;2024-01-06T16:44:28;3.63;;;3.27;;
13319;SDS011;59599;47.608;12.190;2024-01-06T16:46:54;4.43;;;3.93;;
13319;SDS011;59599;47.608;12.190;2024-01-06T16:49:23;5.53;;;3.97;;
13319;SDS011;59599;47.608;12.190;2024-01-06T16:51:49;4.07;;;3.67;;
13319;SDS011;59599;47.608;12.190;2024-01-06T16:54:14;4.93;;;4.37;;
13319;SDS011;59599;47.608;12.190;2024-01-06T16:56:40;5.20;;;4.05;;
13319;SDS011;59599;47.608;12.190;2024-01-06T16:59:10;4.93;;;4.20;;
13319;SDS011;59599;47.608;12.190;2024-01-06T17:01:35;6.13;;;4.10;;
13319;SDS011;59599;47.608;12.190;2024-01-06T17:04:01;5.63;;;4.47;;
13319;SDS011;59599;47.608;12.190;2024-01-06T17:06:27;5.00;;;3.73;;
13319;SDS011;59599;47.608;12.190;2024-01-06T17:08:53;5.30;;;4.40;;
13319;SDS011;59599;47.608;12.190;2024-01-06T17:11:18;6.60;;;5.10;;
13319;SDS011;59599;47.608;12.190;2024-01-06T17:13:44;8.53;;;5.37;;
13319;SDS011;59599;47.608;12.190;2024-01-06T17:16:10;7.63;;;5.23;;
13319;SDS011;59599;47.608;12.190;2024-01-06T17:18:36;6.40;;;4.90;;
13319;SDS011;59599;47.608;12.190;2024-01-06T17:21:02;5.93;;;4.60;;
13319;SDS011;59599;47.608;12.190;2024-01-06T17:23:28;11.37;;;6.83;;